Time;durP1;ratioP1;P1;durP2;ratioP2;P2;SDS_P1;SDS_P2;PMS_P1;PMS_P2;Temp;Humidity;BMP_temperature;BMP_pressure;BME280_temperature;BME280_humidity;BME280_pressure;Samples;Min_cycle;Max_cycle;Signal;HPM_P1;HPM_P2
2023/09/15 00:00:47;;;;;;;5.22;2.10;;;16.10;99.90;;;;;;4957583;28;20048;-82
2023/09/15 00:03:13;;;;;;;7.57;2.35;;;16.10;99.90;;;;;;4953009;29;20051;-87
2023/09/15 00:05:39;;;;;;;5.95;2.28;;;;;;;;;;4943209;29;20028;-86
2023/09/15 00:08:06;;;;;;;4.13;1.98;;;16.00;99.90;;;;;;4934379;29;20044;-85
2023/09/15 00:10:33;;;;;;;4.07;1.90;;;16.00;99.90;;;;;;4937786;29;20118;-86
2023/09/15 00:13:00;;;;;;;5.82;1.90;;;;;;;;;;4930095;29;20087;-85
2023/09/15 00:15:32;;;;;;;4.13;1.95;;;;;;;;;;4951643;23;20039;-86
2023/09/15 00:17:59;;;;;;;6.97;2.20;;;;;;;;;;4956308;28;20035;-86
2023/09/15 00:20:30;;;;;;;6.85;2.08;;;;;;;;;;4954865;28;20039;-87
2023/09/15 00:23:11;;;;;;;5.53;2.17;;;;;;;;;;4960682;28;20100;-85
2023/09/15 00:25:40;;;;;;;6.40;1.87;;;;;;;;;;4960834;28;20024;-88
2023/09/15 00:28:21;;;;;;;7.00;1.90;;;;;;;;;;4937987;29;20032;-89
2023/09/15 00:30:50;;;;;;;5.28;2.50;;;;;;;;;;4919916;29;20055;-88
2023/09/15 00:33:21;;;;;;;6.40;1.85;;;;;;;;;;4934790;29;20024;-89
2023/09/15 00:35:47;;;;;;;;;;;15.80;99.90;;;;;;4936021;29;20132;-88
2023/09/15 00:38:16;;;;;;;7.18;2.17;;;;;;;;;;4935887;29;19915;-88
2023/09/15 00:40:42;;;;;;;4.30;1.80;;;;;;;;;;4938273;29;20032;-87
2023/09/15 00:43:15;;;;;;;4.47;1.90;;;;;;;;;;4939056;29;20398;-88
2023/09/15 00:45:44;;;;;;;3.55;1.70;;;;;;;;;;4932809;29;20028;-89
2023/09/15 00:48:11;;;;;;;4.27;1.80;;;;;;;;;;4948941;28;20028;-89
2023/09/15 00:50:37;;;;;;;5.18;2.63;;;;;;;;;;4938020;29;20540;-86
2023/09/15 00:53:08;;;;;;;4.68;1.95;;;;;;;;;;4938541;29;20038;-88
2023/09/15 00:55:37;;;;;;;7.38;3.10;;;;;;;;;;4940113;29;20084;-85
2023/09/15 00:58:11;;;;;;;5.20;1.92;;;;;;;;;;4923092;29;20142;-86
2023/09/15 01:00:42;;;;;;;6.22;1.85;;;;;;;;;;4939796;29;20035;-86
2023/09/15 01:03:19;;;;;;;;;;;;;;;;;;;;;
2023/09/15 01:05:52;;;;;;;6.07;2.08;;;;;;;;;;4947585;28;20115;-86
2023/09/15 01:08:18;;;;;;;4.20;1.73;;;;;;;;;;4938810;29;20102;-87
2023/09/15 01:10:47;;;;;;;3.90;1.90;;;;;;;;;;4934980;29;20111;-84
2023/09/15 01:13:16;;;;;;;4.72;1.92;;;;;;;;;;4939660;29;20797;-87
2023/09/15 01:15:58;;;;;;;4.60;2.05;;;;;;;;;;4940120;29;20032;-86
2023/09/15 01:18:31;;;;;;;4.40;1.83;;;;;;;;;;4940671;29;20028;-87
2023/09/15 01:21:07;;;;;;;4.88;1.80;;;;;;;;;;4937980;29;20033;-87
2023/09/15 01:23:42;;;;;;;4.25;2.53;;;;;;;;;;4954613;28;20054;-88
2023/09/15 01:26:41;;;;;;;5.65;2.28;;;;;;;;;;4934965;29;20039;-88
2023/09/15 01:29:29;;;;;;;5.05;2.60;;;;;;;;;;4935180;29;20118;-88
2023/09/15 01:32:00;;;;;;;6.85;1.77;;;;;;;;;;4938585;29;20541;-86
2023/09/15 01:34:26;;;;;;;5.07;1.80;;;;;;;;;;4936724;29;20525;-85
2023/09/15 01:36:53;;;;;;;4.57;1.67;;;;;;;;;;4940434;29;20035;-89
2023/09/15 01:39:38;;;;;;;5.07;2.00;;;;;;;;;;4939600;29;20083;-84
2023/09/15 01:42:04;;;;;;;6.13;2.10;;;;;;;;;;4955283;28;20020;-88
2023/09/15 01:44:30;;;;;;;8.52;2.60;;;;;;;;;;4940974;29;20026;-86
2023/09/15 01:46:59;;;;;;;4.70;2.33;;;;;;;;;;4944862;28;20035;-85
2023/09/15 01:49:29;;;;;;;6.43;2.10;;;;;;;;;;4945004;29;20032;-85
2023/09/15 01:51:58;;;;;;;8.10;2.33;;;;;;;;;;4934484;28;20012;-89
2023/09/15 01:54:25;;;;;;;6.20;2.45;;;;;;;;;;4949275;28;20023;-88
2023/09/15 01:56:54;;;;;;;5.97;2.50;;;;;;;;;;4954551;28;20044;-83
2023/09/15 01:59:23;;;;;;;4.65;1.98;;;;;;;;;;4941050;29;20490;-84
2023/09/15 02:01:49;;;;;;;5.88;1.80;;;;;;;;;;4941985;29;20036;-85
2023/09/15 02:04:21;;;;;;;7.88;1.83;;;;;;;;;;4939442;29;20114;-84
2023/09/15 02:06:54;;;;;;;6.22;2.22;;;;;;;;;;4937498;29;20115;-83
2023/09/15 02:09:23;;;;;;;3.05;1.77;;;;;;;;;;4937729;29;20035;-83
2023/09/15 02:11:49;;;;;;;4.97;1.83;;;;;;;;;;4942976;29;20031;-85
2023/09/15 02:14:16;;;;;;;7.45;2.00;;;;;;;;;;4940943;29;20055;-84
2023/09/15 02:16:42;;;;;;;4.10;2.00;;;;;;;;;;4942498;28;20028;-85
2023/09/15 02:19:09;;;;;;;5.32;1.60;;;;;;;;;;4941973;29;20043;-83
2023/09/15 02:21:35;;;;;;;5.57;1.90;;;;;;;;;;4943723;29;20020;-84
2023/09/15 02:24:02;;;;;;;7.53;2.05;;;;;;;;;;4951616;29;20562;-83
2023/09/15 02:26:29;;;;;;;6.55;1.85;;;;;;;;;;4951387;29;20035;-87
2023/09/15 02:28:55;;;;;;;6.15;1.77;;;;;;;;;;4947297;29;20405;-87
2023/09/15 02:31:21;;;;;;;5.93;2.03;;;;;;;;;;4945467;29;20034;-86
2023/09/15 02:33:50;;;;;;;4.50;1.83;;;;;;;;;;4945995;29;20502;-89
2023/09/15 02:36:16;;;;;;;3.97;1.90;;;;;;;;;;4937055;29;20074;-86
2023/09/15 02:38:47;;;;;;;6.50;2.35;;;;;;;;;;4935913;29;20120;-87
2023/09/15 02:41:13;;;;;;;3.33;1.80;;;;;;;;;;4936408;29;20023;-85
2023/09/15 02:43:42;;;;;;;4.18;1.73;;;;;;;;;;4937602;29;20090;-89
2023/09/15 02:46:08;;;;;;;8.23;2.00;;;;;;;;;;4940068;29;20035;-86
2023/09/15 02:48:34;;;;;;;5.18;1.65;;;;;;;;;;4941286;29;20031;-87
2023/09/15 02:51:00;;;;;;;3.53;1.88;;;;;;;;;;4940919;29;20028;-88
2023/09/15 02:53:26;;;;;;;6.90;1.58;;;;;;;;;;4945110;29;20039;-88
2023/09/15 02:56:10;;;;;;;4.68;1.83;;;;;;;;;;4940709;29;20028;-88
2023/09/15 02:58:36;;;;;;;4.88;1.80;;;;;;;;;;4955311;28;20063;-88
2023/09/15 03:01:13;;;;;;;4.72;1.77;;;;;;;;;;4938710;29;20020;-85
2023/09/15 03:03:49;;;;;;;4.63;1.92;;;;;;;;;;4937167;29;20047;-88
2023/09/15 03:06:18;;;;;;;4.90;2.05;;;;;;;;;;4940462;29;20031;-83
2023/09/15 03:08:44;;;;;;;5.75;2.00;;;;;;;;;;4939760;29;20039;-87
2023/09/15 03:11:16;;;;;;;5.50;1.70;;;;;;;;;;4944898;29;20060;-85
2023/09/15 03:13:43;;;;;;;6.28;2.13;;;;;;;;;;4942982;29;20036;-85
2023/09/15 03:16:19;;;;;;;5.75;1.80;;;14.70;99.90;;;;;;4970190;23;20043;-85
2023/09/15 03:18:51;;;;;;;3.85;1.80;;;14.70;99.90;;;;;;4975134;28;20070;-81
2023/09/15 03:21:21;;;;;;;;;;;14.60;99.90;;;;;;4969270;28;20034;-86
2023/09/15 03:23:55;;;;;;;6.22;2.00;;;14.60;99.90;;;;;;4968726;28;20319;-84
2023/09/15 03:26:23;;;;;;;6.32;2.20;;;;;;;;;;4971057;28;20487;-83
2023/09/15 03:29:01;;;;;;;4.88;1.90;;;14.60;99.90;;;;;;4971428;28;20037;-82
2023/09/15 03:31:32;;;;;;;6.13;2.03;;;14.60;99.90;;;;;;4971036;28;20070;-81
2023/09/15 03:34:04;;;;;;;6.07;2.08;;;14.60;99.90;;;;;;4970781;28;20039;-85
2023/09/15 03:36:37;;;;;;;7.30;1.80;;;14.60;99.90;;;;;;4972000;28;20031;-86
2023/09/15 03:39:05;;;;;;;4.75;1.75;;;14.50;99.90;;;;;;4971926;28;20036;-85
2023/09/15 03:41:57;;;;;;;5.22;2.00;;;14.50;99.90;;;;;;4956448;28;20040;-86
2023/09/15 03:44:49;;;;;;;8.10;2.10;;;14.50;99.90;;;;;;4970327;28;20041;-86
2023/09/15 03:47:23;;;;;;;4.78;2.22;;;14.40;99.90;;;;;;4981737;28;20050;-85
2023/09/15 03:49:51;;;;;;;6.68;2.30;;;14.50;99.90;;;;;;4955003;28;20042;-87
2023/09/15 03:52:42;;;;;;;7.70;2.10;;;14.40;99.90;;;;;;4972054;28;20031;-85
2023/09/15 03:55:12;;;;;;;4.38;2.00;;;14.40;99.90;;;;;;4957472;28;20467;-84
2023/09/15 03:57:41;;;;;;;5.43;2.25;;;14.30;99.90;;;;;;4970188;28;20050;-85
2023/09/15 04:00:20;;;;;;;6.20;2.35;;;14.30;99.90;;;;;;4966630;28;20049;-84
2023/09/15 04:02:59;;;;;;;3.75;1.88;;;14.10;99.90;;;;;;4964934;28;20410;-83
2023/09/15 04:05:47;;;;;;;6.38;2.47;;;14.10;99.90;;;;;;4967441;28;20031;-85
2023/09/15 04:08:15;;;;;;;7.47;2.35;;;;;;;;;;4950807;28;20031;-88
2023/09/15 04:10:41;;;;;;;5.78;2.20;;;;;;;;;;4960491;28;20041;-86
2023/09/15 04:13:10;;;;;;;5.40;2.20;;;14.10;99.90;;;;;;4966212;28;20492;-81
2023/09/15 04:15:37;;;;;;;4.80;2.53;;;;;;;;;;4967899;28;20921;-86
2023/09/15 04:18:04;;;;;;;5.65;2.25;;;14.00;99.90;;;;;;4955902;28;20031;-84
2023/09/15 04:20:30;;;;;;;12.00;2.35;;;14.00;99.90;;;;;;4961931;28;20062;-85
2023/09/15 04:22:55;;;;;;;3.92;1.80;;;13.90;99.90;;;;;;4963221;28;20023;-85
2023/09/15 04:25:21;;;;;;;5.75;2.38;;;13.90;99.90;;;;;;4965039;28;20030;-85
2023/09/15 04:27:48;;;;;;;3.92;2.15;;;;;;;;;;4959531;28;20022;-85
2023/09/15 04:30:14;;;;;;;7.18;1.77;;;;;;;;;;4962139;28;20526;-82
2023/09/15 04:32:40;;;;;;;5.07;1.90;;;;;;;;;;4971894;28;20672;-83
2023/09/15 04:35:08;;;;;;;5.97;2.25;;;13.80;99.90;;;;;;4968952;28;20035;-83
2023/09/15 04:37:34;;;;;;;6.53;2.20;;;13.90;99.90;;;;;;4969529;28;20035;-81
2023/09/15 04:40:01;;;;;;;5.82;1.80;;;13.80;99.90;;;;;;4968909;28;20102;-80
2023/09/15 04:42:27;;;;;;;7.05;2.13;;;13.90;99.90;;;;;;4960739;28;20019;-84
2023/09/15 04:44:53;;;;;;;6.68;2.08;;;13.80;99.90;;;;;;4967217;28;20034;-80
2023/09/15 04:47:36;;;;;;;7.65;2.22;;;13.80;99.90;;;;;;4965604;28;20096;-81
2023/09/15 04:50:01;;;;;;;6.47;2.03;;;13.90;99.90;;;;;;4956973;28;20061;-79
2023/09/15 04:52:27;;;;;;;4.70;1.77;;;13.90;99.90;;;;;;4964377;28;20492;-80
2023/09/15 04:54:53;;;;;;;4.80;2.13;;;13.80;99.90;;;;;;4966425;28;20054;-85
2023/09/15 04:57:20;;;;;;;5.72;2.40;;;13.80;99.90;;;;;;4965446;28;20038;-84
2023/09/15 04:59:47;;;;;;;4.05;2.20;;;14.20;99.90;;;;;;4969942;28;20030;-81
2023/09/15 05:02:13;;;;;;;7.60;2.35;;;14.00;99.90;;;;;;4968633;28;20035;-81
2023/09/15 05:04:39;;;;;;;4.10;1.92;;;13.70;99.90;;;;;;4966214;28;20034;-80
2023/09/15 05:07:05;;;;;;;5.75;2.30;;;;;;;;;;4968360;28;20147;-81
2023/09/15 05:09:31;;;;;;;5.10;2.00;;;;;;;;;;4969788;28;20712;-83
2023/09/15 05:11:57;;;;;;;4.82;1.92;;;13.60;99.90;;;;;;4971934;28;20054;-79
2023/09/15 05:14:22;;;;;;;6.35;2.10;;;13.60;99.90;;;;;;4967385;28;20035;-80
2023/09/15 05:16:49;;;;;;;4.38;1.73;;;13.60;99.90;;;;;;4966705;28;20097;-83
2023/09/15 05:19:15;;;;;;;6.32;2.28;;;;;;;;;;4968247;28;20026;-83
2023/09/15 05:21:41;;;;;;;6.70;2.45;;;13.60;99.90;;;;;;4955936;28;20031;-80
2023/09/15 05:24:07;;;;;;;5.90;2.42;;;13.50;99.90;;;;;;4966152;28;20034;-81
2023/09/15 05:26:36;;;;;;;7.63;2.40;;;;;;;;;;4967159;28;20023;-84
2023/09/15 05:29:03;;;;;;;6.78;2.47;;;;;;;;;;4965373;28;20131;-82
2023/09/15 05:31:29;;;;;;;6.88;2.45;;;;;;;;;;4967284;28;20030;-81
2023/09/15 05:33:55;;;;;;;2.95;1.80;;;;;;;;;;4972920;28;20039;-81
2023/09/15 05:36:22;;;;;;;11.73;2.40;;;13.70;99.90;;;;;;4973026;28;20042;-80
2023/09/15 05:38:48;;;;;;;6.88;2.70;;;;;;;;;;4973063;28;20038;-86
2023/09/15 05:41:14;;;;;;;5.47;2.70;;;13.70;99.90;;;;;;4978457;28;20051;-79
2023/09/15 05:43:42;;;;;;;9.05;2.63;;;13.70;99.90;;;;;;4971613;28;20484;-80
2023/09/15 05:46:08;;;;;;;6.80;2.42;;;;;;;;;;4975091;28;20031;-81
2023/09/15 05:48:34;;;;;;;7.03;2.65;;;;;;;;;;4966532;28;20582;-83
2023/09/15 05:51:03;;;;;;;5.35;2.17;;;;;;;;;;4980049;28;20042;-83
2023/09/15 05:53:33;;;;;;;9.38;2.70;;;13.70;99.90;;;;;;4968721;28;20126;-81
2023/09/15 05:55:59;;;;;;;5.22;2.47;;;;;;;;;;4967227;28;20038;-79
2023/09/15 05:58:25;;;;;;;6.72;2.35;;;13.80;99.90;;;;;;4969766;28;20205;-83
2023/09/15 06:00:55;;;;;;;6.18;2.47;;;;;;;;;;4976244;28;20063;-82
2023/09/15 06:03:21;;;;;;;6.35;1.90;;;;;;;;;;4969758;28;20502;-79
2023/09/15 06:05:46;;;;;;;4.05;2.17;;;13.90;99.90;;;;;;4969295;28;20031;-82
2023/09/15 06:08:12;;;;;;;6.57;2.10;;;;;;;;;;4965715;28;20031;-81
2023/09/15 06:10:39;;;;;;;5.55;2.25;;;13.90;99.90;;;;;;4982801;28;20438;-84
2023/09/15 06:13:06;;;;;;;5.00;2.45;;;13.90;99.90;;;;;;4981787;28;20027;-83
2023/09/15 06:15:33;;;;;;;6.10;2.13;;;;;;;;;;4933223;28;1159820;-85
2023/09/15 06:17:59;;;;;;;5.13;2.20;;;;;;;;;;4974594;28;20046;-84
2023/09/15 06:20:26;;;;;;;6.55;2.45;;;14.00;99.90;;;;;;4972215;28;20115;-79
2023/09/15 06:22:52;;;;;;;8.85;2.63;;;;;;;;;;4975347;28;20431;-85
2023/09/15 06:25:18;;;;;;;8.55;2.60;;;;;;;;;;4989519;28;20105;-85
2023/09/15 06:27:44;;;;;;;5.55;2.30;;;;;;;;;;4989748;28;20062;-83
2023/09/15 06:30:10;;;;;;;6.32;2.33;;;14.20;99.90;;;;;;4990912;28;20122;-87
2023/09/15 06:32:36;;;;;;;7.97;2.20;;;14.20;99.90;;;;;;4976087;28;20027;-87
2023/09/15 06:35:01;;;;;;;6.13;2.58;;;14.40;99.90;;;;;;4977233;28;20385;-83
2023/09/15 06:37:27;;;;;;;6.25;2.22;;;14.50;99.90;;;;;;4976401;28;20031;-84
2023/09/15 06:39:53;;;;;;;9.57;2.60;;;14.60;99.90;;;;;;4977408;28;20472;-84
2023/09/15 06:42:18;;;;;;;6.82;2.40;;;15.20;99.90;;;;;;4977003;28;20046;-84
2023/09/15 06:44:44;;;;;;;5.95;2.33;;;15.80;99.90;;;;;;4963041;28;20035;-85
2023/09/15 06:47:10;;;;;;;5.07;2.22;;;;;;;;;;4980020;28;20038;-85
2023/09/15 06:49:35;;;;;;;5.13;2.30;;;15.00;99.90;;;;;;4979753;28;20439;-82
2023/09/15 06:52:01;;;;;;;6.93;2.45;;;15.10;99.90;;;;;;4975320;28;20114;-86
2023/09/15 06:54:27;;;;;;;7.53;2.25;;;15.30;99.90;;;;;;4980285;28;20023;-86
2023/09/15 06:56:53;;;;;;;5.75;2.00;;;;;;;;;;4980793;28;20035;-81
2023/09/15 06:59:19;;;;;;;6.47;2.00;;;;;;;;;;4980960;28;20027;-83
2023/09/15 07:01:45;;;;;;;6.18;2.47;;;;;;;;;;4980071;28;20303;-84
2023/09/15 07:04:12;;;;;;;5.85;2.15;;;15.80;99.90;;;;;;4982422;28;20283;-84
2023/09/15 07:06:38;;;;;;;6.35;2.22;;;;;;;;;;4981697;28;20492;-81
2023/09/15 07:09:05;;;;;;;4.50;2.00;;;;;;;;;;4979841;28;20034;-81
2023/09/15 07:11:31;;;;;;;9.00;2.22;;;;;;;;;;4980492;28;20373;-84
2023/09/15 07:13:57;;;;;;;5.95;1.90;;;;;;;;;;4980053;28;20050;-79
2023/09/15 07:16:23;;;;;;;4.93;2.00;;;;;;;;;;4978667;28;20046;-82
2023/09/15 07:18:49;;;;;;;6.55;2.00;;;;;;;;;;4979859;28;20030;-81
2023/09/15 07:21:15;;;;;;;7.32;2.40;;;;;;;;;;4969809;28;20024;-85
2023/09/15 07:23:41;;;;;;;3.92;2.03;;;;;;;;;;4959883;28;20034;-82
2023/09/15 07:26:07;;;;;;;5.78;1.85;;;;;;;;;;4964446;28;20027;-82
2023/09/15 07:28:33;;;;;;;7.50;2.10;;;;;;;;;;4979789;28;20030;-86
2023/09/15 07:31:03;;;;;;;8.82;1.90;;;16.60;99.90;;;;;;4980108;28;20058;-82
2023/09/15 07:33:29;;;;;;;6.20;2.00;;;;;;;;;;4979266;28;20086;-83
2023/09/15 07:36:01;;;;;;;5.75;2.10;;;16.90;99.90;;;;;;4979691;28;20035;-81
2023/09/15 07:38:29;;;;;;;7.43;2.20;;;;;;;;;;4979738;28;20030;-84
2023/09/15 07:40:55;;;;;;;6.25;1.83;;;;;;;;;;4980294;28;20030;-80
2023/09/15 07:43:21;;;;;;;5.28;1.92;;;;;;;;;;4978726;28;20027;-83
2023/09/15 07:45:48;;;;;;;5.18;2.22;;;;;;;;;;4978445;28;20023;-82
2023/09/15 07:48:15;;;;;;;6.57;1.83;;;17.40;99.90;;;;;;4978997;28;20019;-83
2023/09/15 07:50:41;;;;;;;7.85;1.98;;;;;;;;;;4978532;28;20034;-87
2023/09/15 07:53:07;;;;;;;5.65;2.08;;;;;;;;;;4978464;28;20501;-81
2023/09/15 07:55:33;;;;;;;7.88;2.08;;;;;;;;;;4979789;28;20042;-83
2023/09/15 07:57:59;;;;;;;6.03;2.00;;;;;;;;;;4978286;28;20030;-84
2023/09/15 08:00:25;;;;;;;8.32;2.22;;;;;;;;;;4977964;28;20093;-85
2023/09/15 08:02:51;;;;;;;6.38;2.10;;;;;;;;;;4970688;28;20381;-86
2023/09/15 08:05:17;;;;;;;5.65;1.77;;;;;;;;;;4959618;28;20036;-85
2023/09/15 08:07:44;;;;;;;6.32;2.00;;;;;;;;;;4963330;28;20023;-87
2023/09/15 08:10:11;;;;;;;5.95;2.25;;;18.10;99.90;;;;;;4978117;28;20034;-82
2023/09/15 08:12:37;;;;;;;5.00;1.85;;;;;;;;;;4977739;28;20327;-82
2023/09/15 08:15:05;;;;;;;5.22;2.00;;;18.30;99.90;;;;;;4978620;28;20402;-82
2023/09/15 08:17:31;;;;;;;4.28;2.08;;;;;;;;;;4976749;28;20031;-86
2023/09/15 08:19:57;;;;;;;9.07;1.90;;;;;;;;;;4976240;28;20038;-82
2023/09/15 08:22:25;;;;;;;4.13;1.80;;;;;;;;;;4975180;28;20188;-84
2023/09/15 08:24:51;;;;;;;6.05;1.90;;;;;;;;;;4974949;28;20031;-85
2023/09/15 08:27:17;;;;;;;8.27;2.22;;;;;;;;;;4975516;28;20058;-85
2023/09/15 08:29:44;;;;;;;4.65;2.08;;;;;;;;;;4967398;28;20031;-81
2023/09/15 08:32:12;;;;;;;4.60;1.60;;;18.80;99.90;;;;;;4976473;28;20054;-83
2023/09/15 08:34:37;;;;;;;5.90;1.95;;;18.90;99.90;;;;;;4975719;28;20023;-86
2023/09/15 08:37:04;;;;;;;4.65;1.73;;;18.90;99.90;;;;;;4975625;28;20062;-84
2023/09/15 08:39:30;;;;;;;4.20;1.80;;;;;;;;;;4978456;28;20098;-83
2023/09/15 08:42:13;;;;;;;4.28;1.95;;;19.00;99.90;;;;;;4993810;28;20047;-84
2023/09/15 08:44:41;;;;;;;7.15;2.08;;;19.10;99.90;;;;;;4977518;28;20388;-83
2023/09/15 08:47:08;;;;;;;4.43;2.10;;;19.00;99.90;;;;;;4962752;28;20412;-83
2023/09/15 08:49:36;;;;;;;3.97;1.90;;;19.30;99.90;;;;;;4977764;28;20059;-81
2023/09/15 08:52:06;;;;;;;4.82;2.00;;;19.50;99.90;;;;;;4979208;28;20030;-83
2023/09/15 08:54:32;;;;;;;4.15;1.83;;;;;;;;;;4979794;28;20026;-82
2023/09/15 08:56:58;;;;;;;8.98;2.42;;;;;;;;;;4981143;28;20298;-82
2023/09/15 08:59:24;;;;;;;8.93;2.63;;;;;;;;;;4979164;28;20554;-82
2023/09/15 09:01:51;;;;;;;6.75;2.13;;;19.80;99.90;;;;;;4979115;28;20495;-81
2023/09/15 09:04:17;;;;;;;4.38;2.10;;;;;;;;;;4980030;28;20033;-83
2023/09/15 09:06:44;;;;;;;3.70;1.70;;;;;;;;;;4979433;28;20062;-81
2023/09/15 09:09:10;;;;;;;6.15;2.40;;;;;;;;;;4969813;28;20031;-82
2023/09/15 09:11:36;;;;;;;5.47;2.17;;;;;;;;;;4960754;29;20039;-81
2023/09/15 09:14:10;;;;;;;6.60;2.53;;;20.40;99.90;;;;;;4975239;28;20029;-81
2023/09/15 09:16:36;;;;;;;8.40;2.30;;;;;;;;;;4978308;28;20039;-85
2023/09/15 09:19:06;;;;;;;7.80;2.40;;;20.60;99.90;;;;;;4966976;28;20046;-82
2023/09/15 09:21:33;;;;;;;5.43;2.00;;;;;;;;;;4983804;28;20034;-85
2023/09/15 09:23:59;;;;;;;4.78;1.67;;;;;;;;;;4991189;28;20097;-82
2023/09/15 09:26:25;;;;;;;7.25;2.20;;;;;;;;;;4996958;28;20061;-81
2023/09/15 09:28:57;;;;;;;7.13;2.22;;;;;;;;;;4996219;28;20034;-83
2023/09/15 09:31:24;;;;;;;4.00;2.15;;;;;;;;;;4972413;28;20039;-82
2023/09/15 09:33:50;;;;;;;9.00;2.40;;;;;;;;;;4970072;28;20400;-87
2023/09/15 09:36:16;;;;;;;7.40;2.38;;;;;;;;;;4980252;28;20034;-86
2023/09/15 09:38:49;;;;;;;4.03;2.00;;;21.60;99.90;;;;;;4978316;28;20065;-82
2023/09/15 09:41:20;;;;;;;5.80;2.38;;;21.60;99.90;;;;;;4979992;28;20023;-82
2023/09/15 09:43:46;;;;;;;12.05;2.47;;;21.70;99.90;;;;;;4961813;28;20233;-82
2023/09/15 09:46:13;;;;;;;4.72;2.35;;;21.70;99.90;;;;;;4980897;28;20550;-83
2023/09/15 09:48:41;;;;;;;7.65;2.22;;;21.80;99.90;;;;;;4993226;28;20436;-82
2023/09/15 09:51:07;;;;;;;5.68;1.95;;;;;;;;;;4968793;28;20026;-82
2023/09/15 09:53:35;;;;;;;5.43;2.28;;;21.70;99.90;;;;;;4977712;28;20022;-82
2023/09/15 09:56:05;;;;;;;4.47;1.75;;;21.80;99.90;;;;;;4980769;28;20031;-82
2023/09/15 09:58:31;;;;;;;;;;;21.80;99.90;;;;;;4973851;28;20031;-86
2023/09/15 10:01:06;;;;;;;5.43;2.15;;;22.00;99.90;;;;;;4972114;28;19914;-85
2023/09/15 10:03:53;;;;;;;5.88;2.20;;;;;;;;;;4974076;28;20031;-87
2023/09/15 10:06:19;;;;;;;7.25;2.72;;;;;;;;;;4951722;29;20031;-85
2023/09/15 10:08:46;;;;;;;3.40;1.95;;;;;;;;;;4964533;28;20106;-84
2023/09/15 10:11:13;;;;;;;4.45;2.25;;;;;;;;;;4956113;28;20099;-84
2023/09/15 10:13:40;;;;;;;5.95;2.55;;;;;;;;;;4958821;29;20034;-83
2023/09/15 10:16:06;;;;;;;4.97;2.40;;;;;;;;;;4982691;28;20035;-83
2023/09/15 10:18:32;;;;;;;4.75;2.33;;;;;;;;;;4948768;29;20510;-81
2023/09/15 10:21:01;;;;;;;5.05;2.42;;;;;;;;;;4963550;29;20024;-84
2023/09/15 10:23:30;;;;;;;2.97;1.80;;;22.50;99.90;;;;;;4960888;28;20054;-82
2023/09/15 10:26:06;;;;;;;4.90;2.10;;;;;;;;;;4954243;29;20506;-81
2023/09/15 10:28:35;;;;;;;4.13;2.20;;;;;;;;;;4959972;28;20046;-83
2023/09/15 10:31:01;;;;;;;5.47;2.30;;;;;;;;;;4959939;28;20030;-82
2023/09/15 10:33:28;;;;;;;6.40;2.30;;;;;;;;;;4965445;28;20594;-83
2023/09/15 10:36:06;;;;;;;5.18;2.30;;;22.80;99.90;;;;;;4959809;28;20031;-85
2023/09/15 10:38:35;;;;;;;4.13;2.20;;;;;;;;;;4977732;28;20023;-89
2023/09/15 10:41:05;;;;;;;4.80;2.10;;;;;;;;;;4955868;28;20023;-85
2023/09/15 10:43:31;;;;;;;;;;;23.10;99.90;;;;;;4960172;29;20480;-81
2023/09/15 10:46:02;;;;;;;5.38;2.08;;;23.40;99.90;;;;;;4955022;28;19914;-81
2023/09/15 10:48:46;;;;;;;3.47;2.20;;;23.40;99.90;;;;;;4955428;28;20070;-86
2023/09/15 10:51:12;;;;;;;5.20;2.33;;;;;;;;;;4969637;28;20055;-83
2023/09/15 10:53:43;;;;;;;6.35;2.10;;;;;;;;;;4957129;29;20055;-82
2023/09/15 10:56:19;;;;;;;4.95;2.50;;;23.50;99.90;;;;;;4976788;28;20079;-80
2023/09/15 10:58:49;;;;;;;5.90;2.30;;;23.50;99.90;;;;;;4974527;28;20035;-81
2023/09/15 11:01:16;;;;;;;4.13;2.08;;;;;;;;;;4978052;28;20440;-84
2023/09/15 11:03:42;;;;;;;4.90;2.38;;;;;;;;;;4980782;28;20034;-84
2023/09/15 11:06:13;;;;;;;15.38;3.42;;;;;;;;;;4981110;28;20448;-83
2023/09/15 11:08:42;;;;;;;8.60;2.45;;;;;;;;;;4966493;28;20464;-84
2023/09/15 11:11:20;;;;;;;6.83;2.60;;;;;;;;;;4962044;29;20027;-84
2023/09/15 11:13:54;;;;;;;4.38;2.40;;;;;;;;;;4951659;29;20032;-83
2023/09/15 11:16:20;;;;;;;6.97;2.50;;;;;;;;;;4962511;29;20031;-84
2023/09/15 11:19:04;;;;;;;6.25;2.58;;;;;;;;;;4966054;28;20079;-84
2023/09/15 11:21:30;;;;;;;4.03;2.60;;;;;;;;;;4965169;29;20035;-83
2023/09/15 11:23:57;;;;;;;6.43;2.40;;;;;;;;;;4963755;28;20038;-83
2023/09/15 11:26:25;;;;;;;5.00;2.30;;;;;;;;;;4970544;28;20032;-83
2023/09/15 11:28:54;;;;;;;3.63;2.20;;;;;;;;;;4953090;29;20036;-84
2023/09/15 11:31:20;;;;;;;4.55;2.58;;;;;;;;;;4964847;28;20062;-85
2023/09/15 11:33:46;;;;;;;3.38;2.40;;;;;;;;;;4971032;28;20486;-84
2023/09/15 11:36:15;;;;;;;5.43;2.53;;;24.30;99.90;;;;;;4961682;29;20038;-82
2023/09/15 11:38:41;;;;;;;5.00;2.78;;;;;;;;;;4959582;28;20087;-80
2023/09/15 11:41:07;;;;;;;5.10;2.33;;;;;;;;;;4979324;28;20634;-85
2023/09/15 11:43:35;;;;;;;5.78;2.80;;;;;;;;;;4969702;28;20457;-85
2023/09/15 11:46:01;;;;;;;5.03;3.15;;;;;;;;;;4961070;29;20107;-81
2023/09/15 11:48:29;;;;;;;5.53;2.80;;;;;;;;;;4964977;29;20034;-81
2023/09/15 11:50:57;;;;;;;8.10;2.85;;;;;;;;;;4959117;29;20028;-84
2023/09/15 11:53:25;;;;;;;6.32;2.70;;;24.40;99.90;;;;;;4952702;28;20035;-84
2023/09/15 11:55:57;;;;;;;5.75;2.92;;;;;;;;;;4978009;28;20031;-84
2023/09/15 11:58:23;;;;;;;6.57;2.75;;;;;;;;;;4981304;28;20042;-83
2023/09/15 12:00:50;;;;;;;6.00;3.00;;;24.60;99.90;;;;;;4980843;28;20033;-85
2023/09/15 12:03:18;;;;;;;3.58;2.50;;;;;;;;;;4980336;28;20078;-81
2023/09/15 12:05:47;;;;;;;6.07;2.70;;;;;;;;;;4977356;28;20095;-82
2023/09/15 12:08:13;;;;;;;5.35;2.53;;;;;;;;;;4979918;28;20047;-86
2023/09/15 12:10:42;;;;;;;5.75;2.70;;;;;;;;;;4978491;28;20400;-86
2023/09/15 12:13:12;;;;;;;4.93;3.05;;;;;;;;;;4963749;28;20097;-87
2023/09/15 12:15:38;;;;;;;5.32;2.83;;;24.40;99.90;;;;;;4965794;23;20035;-82
2023/09/15 12:18:08;;;;;;;4.47;2.90;;;;;;;;;;4951951;28;20080;-84
2023/09/15 12:20:37;;;;;;;4.10;2.50;;;24.70;99.90;;;;;;4925644;29;20044;-85
2023/09/15 12:23:11;;;;;;;5.97;2.90;;;24.80;99.90;;;;;;4925057;29;20032;-83
2023/09/15 12:25:38;;;;;;;4.47;2.50;;;;;;;;;;4901685;29;20056;-83
2023/09/15 12:28:04;;;;;;;3.83;2.67;;;;;;;;;;4898185;29;20052;-82
2023/09/15 12:30:30;;;;;;;3.55;2.70;;;;;;;;;;4900272;29;20105;-85
2023/09/15 12:32:56;;;;;;;5.78;3.10;;;;;;;;;;4897874;29;20044;-84
2023/09/15 12:35:22;;;;;;;4.32;3.15;;;;;;;;;;4902929;29;20064;-82
2023/09/15 12:37:48;;;;;;;5.80;2.80;;;25.40;99.90;;;;;;4902344;29;20046;-83
2023/09/15 12:40:15;;;;;;;7.55;3.45;;;25.60;99.90;;;;;;4918827;29;20692;-84
2023/09/15 12:42:43;;;;;;;5.38;2.90;;;;;;;;;;4909061;29;20972;-83
2023/09/15 12:45:14;;;;;;;5.15;2.90;;;;;;;;;;4899144;29;20035;-82
2023/09/15 12:47:40;;;;;;;5.72;3.22;;;;;;;;;;4902843;29;20077;-83
2023/09/15 12:50:06;;;;;;;7.20;3.35;;;;;;;;;;4901625;29;20243;-84
2023/09/15 12:52:33;;;;;;;5.07;3.05;;;;;;;;;;4902031;29;20032;-82
2023/09/15 12:55:03;;;;;;;6.18;2.92;;;;;;;;;;4896223;29;20029;-83
2023/09/15 12:57:29;;;;;;;5.10;2.70;;;;;;;;;;4903619;29;20136;-85
2023/09/15 12:59:58;;;;;;;5.45;2.90;;;;;;;;;;4912347;29;20056;-85
2023/09/15 13:02:24;;;;;;;5.50;2.83;;;;;;;;;;4895757;29;20510;-83
2023/09/15 13:04:50;;;;;;;5.30;3.15;;;25.20;99.90;;;;;;4900522;29;20100;-84
2023/09/15 13:07:16;;;;;;;4.18;2.80;;;;;;;;;;4903760;29;20039;-84
2023/09/15 13:09:42;;;;;;;4.25;2.92;;;;;;;;;;4903941;29;20043;-83
2023/09/15 13:12:08;;;;;;;5.35;3.45;;;;;;;;;;4915830;29;20057;-83
2023/09/15 13:14:34;;;;;;;5.10;2.88;;;;;;;;;;4902189;29;20032;-83
2023/09/15 13:17:00;;;;;;;9.75;3.00;;;;;;;;;;4898388;29;20036;-84
2023/09/15 13:19:27;;;;;;;8.32;3.05;;;;;;;;;;4908298;29;20043;-84
2023/09/15 13:21:53;;;;;;;4.95;3.05;;;;;;;;;;4900898;29;20025;-86
2023/09/15 13:24:19;;;;;;;4.50;2.92;;;;;;;;;;4902329;29;20020;-85
2023/09/15 13:26:45;;;;;;;5.75;2.92;;;;;;;;;;4902425;29;20051;-83
2023/09/15 13:29:11;;;;;;;4.35;2.88;;;;;;;;;;4902654;29;20286;-84
2023/09/15 13:31:38;;;;;;;6.43;3.15;;;;;;;;;;4902395;29;20128;-84
2023/09/15 13:34:04;;;;;;;4.53;2.88;;;;;;;;;;4909757;29;20039;-85
2023/09/15 13:36:30;;;;;;;5.63;3.40;;;;;;;;;;4894101;29;20072;-85
2023/09/15 13:38:56;;;;;;;5.07;3.00;;;;;;;;;;4902731;29;20037;-84
2023/09/15 13:41:24;;;;;;;5.22;2.95;;;;;;;;;;4904418;29;20132;-83
2023/09/15 13:43:50;;;;;;;5.15;2.70;;;;;;;;;;4907249;29;20025;-82
2023/09/15 13:46:16;;;;;;;6.65;3.38;;;;;;;;;;4901496;29;20096;-84
2023/09/15 13:48:42;;;;;;;4.05;2.88;;;;;;;;;;4904976;29;20126;-83
2023/09/15 13:51:11;;;;;;;3.83;2.95;;;26.00;98.90;;;;;;4923018;29;20036;-84
2023/09/15 13:53:39;;;;;;;4.18;2.80;;;25.90;98.70;;;;;;4927996;29;20036;-82
2023/09/15 13:56:05;;;;;;;4.65;2.65;;;;;;;;;;4911883;29;20036;-83
2023/09/15 13:58:38;;;;;;;4.72;3.20;;;;;;;;;;4901589;29;20032;-84
2023/09/15 14:01:05;;;;;;;7.00;3.10;;;;;;;;;;4906222;29;20474;-83
2023/09/15 14:03:31;;;;;;;3.55;2.40;;;;;;;;;;4909512;29;20119;-82
2023/09/15 14:05:57;;;;;;;4.55;3.17;;;;;;;;;;4898638;29;20025;-83
2023/09/15 14:08:24;;;;;;;4.72;3.30;;;25.50;99.20;;;;;;4923011;29;20025;-85
2023/09/15 14:10:50;;;;;;;4.28;2.63;;;25.50;99.20;;;;;;4909399;29;20115;-82